Time;durP1;ratioP1;P1;durP2;ratioP2;P2;SDS_P1;SDS_P2;PMS_P1;PMS_P2;Temp;Humidity;BMP_temperature;BMP_pressure;BME280_temperature;BME280_humidity;BME280_pressure;Samples;Min_cycle;Max_cycle;Signal;HPM_P1;HPM_P2
2021/10/04 00:01:02;;;;;;;2.17;1.27;;;11.90;99.90;;;;;;5047340;28;20923;-72
2021/10/04 00:03:27;;;;;;;3.10;1.10;;;11.90;99.90;;;;;;5053049;28;20418;-72
2021/10/04 00:05:53;;;;;;;2.00;1.20;;;11.90;99.90;;;;;;5053122;28;20450;-72
2021/10/04 00:08:18;;;;;;;4.10;1.27;;;11.90;99.90;;;;;;5053023;28;20171;-72
2021/10/04 00:10:44;;;;;;;2.13;1.73;;;12.00;99.90;;;;;;5052980;28;20588;-73
2021/10/04 00:13:11;;;;;;;2.50;1.30;;;12.00;99.90;;;;;;5053004;28;20609;-73
2021/10/04 00:15:36;;;;;;;5.47;1.63;;;12.00;99.90;;;;;;5053250;28;20251;-73
2021/10/04 00:18:02;;;;;;;1.70;1.10;;;12.00;99.90;;;;;;5052276;28;20916;-73
2021/10/04 00:20:28;;;;;;;2.17;1.57;;;12.00;99.90;;;;;;5048510;28;20264;-73
2021/10/04 00:22:56;;;;;;;2.43;2.03;;;12.00;99.90;;;;;;5032915;28;20478;-73
2021/10/04 00:25:21;;;;;;;1.70;1.17;;;11.90;99.90;;;;;;5032613;28;20184;-73
2021/10/04 00:27:47;;;;;;;2.27;1.60;;;11.90;99.90;;;;;;5032851;28;20404;-73
2021/10/04 00:30:13;;;;;;;1.83;1.63;;;11.90;99.90;;;;;;5033585;28;20529;-73
2021/10/04 00:32:42;;;;;;;1.93;1.20;;;11.90;99.90;;;;;;5032759;28;20157;-73
2021/10/04 00:35:09;;;;;;;2.00;1.30;;;11.90;99.90;;;;;;5033230;28;20415;-73
2021/10/04 00:37:35;;;;;;;2.40;1.43;;;11.90;99.90;;;;;;5032597;28;20473;-73
2021/10/04 00:40:02;;;;;;;1.80;1.47;;;11.90;99.90;;;;;;5032605;28;20646;-73
2021/10/04 00:42:28;;;;;;;2.00;1.30;;;11.80;99.90;;;;;;5032687;28;20165;-73
2021/10/04 00:44:53;;;;;;;1.53;1.10;;;11.80;99.90;;;;;;5032887;28;20774;-73
2021/10/04 00:47:19;;;;;;;1.57;1.47;;;11.80;99.90;;;;;;5032501;28;20275;-73
2021/10/04 00:49:45;;;;;;;2.57;1.70;;;11.80;99.90;;;;;;5032335;28;20149;-73
2021/10/04 00:52:11;;;;;;;2.53;1.90;;;11.70;99.90;;;;;;5037176;28;20408;-73
2021/10/04 00:54:38;;;;;;;2.77;1.43;;;11.70;99.90;;;;;;5032378;28;20392;-73
2021/10/04 00:57:04;;;;;;;1.40;1.20;;;11.70;99.90;;;;;;5032552;28;20188;-73
2021/10/04 00:59:32;;;;;;;2.93;1.33;;;11.70;99.90;;;;;;5032767;28;20477;-72
2021/10/04 01:01:57;;;;;;;2.17;1.20;;;11.60;99.90;;;;;;5032265;28;21027;-72
2021/10/04 01:04:26;;;;;;;1.80;1.43;;;11.60;99.90;;;;;;5032409;28;20411;-72
2021/10/04 01:06:55;;;;;;;2.57;1.70;;;11.60;99.90;;;;;;5032402;28;20514;-72
2021/10/04 01:09:20;;;;;;;5.53;2.87;;;11.60;99.90;;;;;;5032961;28;20404;-72
2021/10/04 01:11:46;;;;;;;3.83;1.73;;;11.60;99.90;;;;;;5032521;28;20449;-72
2021/10/04 01:14:12;;;;;;;3.03;1.50;;;11.60;99.90;;;;;;5032957;28;20164;-72
2021/10/04 01:16:38;;;;;;;4.23;2.10;;;11.60;99.90;;;;;;5032213;28;20164;-72
2021/10/04 01:19:03;;;;;;;5.73;2.70;;;11.60;99.90;;;;;;5032413;28;20392;-72
2021/10/04 01:21:29;;;;;;;1.70;1.60;;;11.60;99.90;;;;;;5046244;28;20247;-72
2021/10/04 01:23:55;;;;;;;2.20;1.73;;;11.60;99.90;;;;;;5051974;28;20706;-72
2021/10/04 01:26:20;;;;;;;1.93;1.73;;;11.60;99.90;;;;;;5035478;28;20201;-72
2021/10/04 01:28:46;;;;;;;2.60;1.90;;;11.60;99.90;;;;;;5032766;28;20165;-72
2021/10/04 01:31:13;;;;;;;3.40;1.70;;;11.60;99.90;;;;;;5032278;28;20157;-72
2021/10/04 01:33:39;;;;;;;3.87;1.67;;;11.60;99.90;;;;;;5032171;28;20391;-72
2021/10/04 01:36:04;;;;;;;1.67;1.57;;;11.70;99.90;;;;;;5032316;28;20895;-72
2021/10/04 01:38:30;;;;;;;1.17;1.03;;;11.70;99.90;;;;;;5032171;28;20908;-72
2021/10/04 01:40:56;;;;;;;2.53;1.30;;;11.70;99.90;;;;;;5032293;28;20173;-72
2021/10/04 01:43:21;;;;;;;2.27;1.60;;;11.70;99.90;;;;;;5033470;28;20177;-72
2021/10/04 01:45:47;;;;;;;4.70;3.53;;;11.80;99.90;;;;;;5031961;28;20603;-72
2021/10/04 01:48:12;;;;;;;13.00;8.13;;;11.80;99.90;;;;;;5032063;28;20168;-72
2021/10/04 01:50:39;;;;;;;3.37;2.40;;;11.80;99.90;;;;;;5041320;28;20176;-72
2021/10/04 01:53:06;;;;;;;2.37;1.57;;;11.80;99.90;;;;;;5053108;28;20282;-72
2021/10/04 01:55:32;;;;;;;2.80;1.53;;;11.70;99.90;;;;;;5055714;28;20407;-72
2021/10/04 01:57:57;;;;;;;2.60;1.50;;;11.70;99.90;;;;;;5055099;28;20903;-72
2021/10/04 02:00:23;;;;;;;2.40;1.00;;;11.70;99.90;;;;;;5052049;28;20195;-72
2021/10/04 02:02:52;;;;;;;1.13;1.00;;;11.70;99.90;;;;;;5055639;28;20251;-72
2021/10/04 02:05:20;;;;;;;1.27;1.10;;;11.70;99.90;;;;;;5055233;28;20152;-72
2021/10/04 02:07:46;;;;;;;1.63;1.00;;;11.70;99.90;;;;;;5049359;28;20462;-72
2021/10/04 02:10:16;;;;;;;1.37;1.00;;;11.70;99.90;;;;;;5035305;28;20396;-72
2021/10/04 02:12:42;;;;;;;1.83;1.20;;;11.70;99.90;;;;;;5035905;28;20765;-72
2021/10/04 02:15:08;;;;;;;3.00;1.47;;;11.70;99.90;;;;;;5035482;28;20410;-72
2021/10/04 02:17:34;;;;;;;2.30;1.50;;;11.70;99.90;;;;;;5053623;28;20407;-72
2021/10/04 02:20:01;;;;;;;1.80;1.07;;;11.70;99.90;;;;;;5055057;28;20880;-73
2021/10/04 02:22:27;;;;;;;2.57;1.30;;;11.70;99.90;;;;;;5055010;28;20748;-73
2021/10/04 02:24:53;;;;;;;2.37;1.00;;;11.70;99.90;;;;;;5055081;28;20407;-73
2021/10/04 02:27:18;;;;;;;2.37;1.23;;;11.60;99.90;;;;;;5055408;28;20434;-73
2021/10/04 02:29:44;;;;;;;1.50;1.13;;;11.70;99.90;;;;;;5054864;28;20152;-73
2021/10/04 02:32:10;;;;;;;1.37;1.17;;;11.70;99.90;;;;;;5054870;28;20698;-73
2021/10/04 02:34:35;;;;;;;1.40;1.20;;;11.60;99.90;;;;;;5053837;28;20183;-73
2021/10/04 02:37:01;;;;;;;2.17;1.10;;;11.70;99.90;;;;;;5054753;28;20168;-73
2021/10/04 02:39:27;;;;;;;2.23;1.67;;;11.70;99.90;;;;;;5035792;28;20180;-72
2021/10/04 02:41:53;;;;;;;2.90;1.10;;;11.70;99.90;;;;;;5035228;28;20161;-72
2021/10/04 02:44:18;;;;;;;4.67;1.20;;;11.70;99.90;;;;;;5034786;28;20621;-72
2021/10/04 02:46:44;;;;;;;1.77;1.30;;;11.60;99.90;;;;;;5034496;28;20665;-72
2021/10/04 02:49:09;;;;;;;4.30;1.30;;;11.70;99.90;;;;;;5034473;28;20219;-72
2021/10/04 02:51:35;;;;;;;1.63;1.00;;;11.70;99.90;;;;;;5053001;28;20195;-72
2021/10/04 02:54:01;;;;;;;2.60;1.07;;;11.70;99.90;;;;;;5055170;28;20290;-72
2021/10/04 02:56:26;;;;;;;1.30;1.20;;;11.70;99.90;;;;;;5054513;28;20192;-72
2021/10/04 02:58:52;;;;;;;1.50;1.40;;;11.70;99.90;;;;;;5054600;28;20603;-72
2021/10/04 03:01:18;;;;;;;3.73;1.20;;;11.70;99.90;;;;;;5054745;28;20160;-70
2021/10/04 03:03:43;;;;;;;1.63;1.10;;;11.70;99.90;;;;;;5054057;28;20541;-70
2021/10/04 03:06:09;;;;;;;2.40;0.90;;;11.70;99.90;;;;;;5054105;28;20270;-70
2021/10/04 03:08:34;;;;;;;1.17;1.07;;;11.70;99.90;;;;;;5041248;28;20667;-70
2021/10/04 03:11:00;;;;;;;7.13;2.63;;;11.70;99.90;;;;;;5034426;28;20165;-70
2021/10/04 03:13:26;;;;;;;4.33;1.10;;;11.70;99.90;;;;;;5034541;28;20521;-70
2021/10/04 03:15:51;;;;;;;4.90;1.50;;;11.70;99.90;;;;;;5034021;28;20165;-70
2021/10/04 03:18:17;;;;;;;3.40;1.37;;;11.70;99.90;;;;;;5034060;28;20165;-70
2021/10/04 03:20:42;;;;;;;2.20;1.53;;;11.70;99.90;;;;;;5034164;28;20165;-71
2021/10/04 03:23:08;;;;;;;3.07;1.43;;;11.70;99.90;;;;;;5033839;28;20629;-70
2021/10/04 03:25:34;;;;;;;2.43;1.30;;;11.70;99.90;;;;;;5034313;28;20692;-70
2021/10/04 03:28:00;;;;;;;2.47;1.40;;;11.70;99.90;;;;;;5034297;28;20164;-70
2021/10/04 03:30:26;;;;;;;1.90;1.33;;;11.70;99.90;;;;;;5033889;28;20778;-70
2021/10/04 03:32:52;;;;;;;1.60;1.40;;;11.70;99.90;;;;;;5033776;28;20161;-70
2021/10/04 03:35:18;;;;;;;2.67;1.23;;;11.70;99.90;;;;;;5033747;28;20153;-70
2021/10/04 03:37:43;;;;;;;1.80;1.53;;;11.70;99.90;;;;;;5040006;28;20423;-70
2021/10/04 03:40:10;;;;;;;1.07;0.97;;;11.70;99.90;;;;;;5053455;28;20436;-70
2021/10/04 03:42:36;;;;;;;2.70;1.57;;;11.70;99.90;;;;;;5035035;28;20177;-70
2021/10/04 03:45:03;;;;;;;3.90;1.50;;;11.70;99.90;;;;;;5033427;28;20431;-70
2021/10/04 03:47:29;;;;;;;2.40;1.00;;;11.70;99.90;;;;;;5033374;28;20912;-70
2021/10/04 03:49:54;;;;;;;2.07;1.10;;;11.70;99.90;;;;;;5033232;28;20457;-70
2021/10/04 03:52:20;;;;;;;2.27;1.00;;;11.70;99.90;;;;;;5033584;28;20169;-70
2021/10/04 03:54:45;;;;;;;2.47;1.27;;;11.70;99.90;;;;;;5033435;28;20168;-70
2021/10/04 03:57:11;;;;;;;2.80;1.60;;;11.70;99.90;;;;;;5033932;28;20170;-70
2021/10/04 03:59:37;;;;;;;3.10;1.10;;;11.70;99.90;;;;;;5033821;28;20568;-70
2021/10/04 04:02:03;;;;;;;5.23;1.60;;;11.70;99.90;;;;;;5033217;28;20399;-70
2021/10/04 04:04:29;;;;;;;1.70;1.00;;;11.70;99.90;;;;;;5033224;28;20392;-70
2021/10/04 04:06:54;;;;;;;2.83;1.00;;;11.70;99.90;;;;;;5033111;28;20556;-70
2021/10/04 04:09:20;;;;;;;2.23;1.40;;;11.70;99.90;;;;;;5052214;28;20230;-70
2021/10/04 04:11:46;;;;;;;1.50;1.10;;;11.70;99.90;;;;;;5053229;28;20164;-70
2021/10/04 04:14:11;;;;;;;3.90;1.07;;;11.70;99.90;;;;;;5052902;28;20170;-70
2021/10/04 04:16:37;;;;;;;1.80;1.10;;;11.70;99.90;;;;;;5033654;28;20173;-70
2021/10/04 04:19:02;;;;;;;1.37;1.10;;;11.80;99.90;;;;;;5033105;28;20215;-70
2021/10/04 04:21:29;;;;;;;2.40;1.60;;;11.80;99.90;;;;;;5032929;28;20167;-70
2021/10/04 04:23:54;;;;;;;1.20;1.10;;;11.80;99.90;;;;;;5032859;28;20252;-70
2021/10/04 04:26:20;;;;;;;2.53;1.17;;;11.80;99.90;;;;;;5039955;28;21030;-70
2021/10/04 04:28:46;;;;;;;3.40;1.07;;;11.80;99.90;;;;;;5052724;28;20213;-71
2021/10/04 04:31:11;;;;;;;2.57;1.20;;;11.80;99.90;;;;;;5052699;28;20239;-71
2021/10/04 04:33:37;;;;;;;3.00;1.33;;;11.80;99.90;;;;;;5033607;28;20176;-70
2021/10/04 04:36:03;;;;;;;2.50;0.83;;;11.80;99.90;;;;;;5032758;28;20161;-70
2021/10/04 04:38:28;;;;;;;2.50;1.00;;;11.80;99.90;;;;;;5044605;28;20513;-70
2021/10/04 04:40:54;;;;;;;3.50;1.40;;;11.80;99.90;;;;;;5053197;28;20168;-71
2021/10/04 04:43:19;;;;;;;1.00;0.80;;;11.80;99.90;;;;;;5052699;28;20164;-71
2021/10/04 04:45:45;;;;;;;5.27;1.50;;;11.80;99.90;;;;;;5052580;28;20203;-71
2021/10/04 04:48:11;;;;;;;1.80;1.37;;;11.80;99.90;;;;;;5052610;28;20197;-70
2021/10/04 04:50:37;;;;;;;2.63;1.10;;;11.80;99.90;;;;;;5033013;28;20411;-70
2021/10/04 04:53:02;;;;;;;2.10;1.03;;;11.80;99.90;;;;;;5033943;28;20173;-70
2021/10/04 04:55:28;;;;;;;1.90;1.33;;;11.80;99.90;;;;;;5036634;28;20172;-70
2021/10/04 04:57:53;;;;;;;2.27;1.10;;;11.80;99.90;;;;;;5033568;28;20195;-70
2021/10/04 05:00:19;;;;;;;3.70;1.47;;;11.80;99.90;;;;;;5032295;28;20723;-70
2021/10/04 05:02:46;;;;;;;2.30;1.10;;;11.80;99.90;;;;;;5032176;28;20227;-71
2021/10/04 05:05:14;;;;;;;1.50;1.40;;;11.90;99.90;;;;;;5032519;28;20165;-70
2021/10/04 05:07:40;;;;;;;4.20;1.60;;;11.80;99.90;;;;;;5034491;28;20423;-70
2021/10/04 05:10:07;;;;;;;2.73;1.40;;;11.90;99.90;;;;;;5051061;28;20825;-71
2021/10/04 05:12:33;;;;;;;1.60;1.10;;;11.80;99.90;;;;;;5052537;28;20168;-70
2021/10/04 05:14:59;;;;;;;1.57;1.23;;;11.90;99.90;;;;;;5050096;28;20418;-70
2021/10/04 05:17:24;;;;;;;2.07;1.13;;;11.90;99.90;;;;;;5042425;28;20416;-70
2021/10/04 05:19:50;;;;;;;2.20;1.67;;;11.90;99.90;;;;;;5032573;28;20215;-70
2021/10/04 05:22:16;;;;;;;4.23;1.83;;;11.90;99.90;;;;;;5033133;28;20181;-70
2021/10/04 05:24:42;;;;;;;3.73;1.33;;;11.90;99.90;;;;;;5036708;28;20446;-71
2021/10/04 05:27:07;;;;;;;1.43;1.03;;;11.90;99.90;;;;;;5049050;28;20560;-70
2021/10/04 05:29:33;;;;;;;1.10;1.00;;;11.90;99.90;;;;;;5046114;28;20188;-71
2021/10/04 05:31:58;;;;;;;1.83;1.67;;;11.90;99.90;;;;;;5043191;28;20181;-70
2021/10/04 05:34:24;;;;;;;2.93;1.33;;;11.90;99.90;;;;;;5037952;28;20204;-70
2021/10/04 05:36:49;;;;;;;2.03;1.40;;;11.90;99.90;;;;;;5035892;28;20169;-70
2021/10/04 05:39:15;;;;;;;1.93;1.17;;;11.90;99.90;;;;;;5040090;28;20266;-70
2021/10/04 05:41:40;;;;;;;2.33;1.00;;;12.00;99.90;;;;;;5039190;28;20184;-70
2021/10/04 05:44:07;;;;;;;1.63;1.20;;;12.00;99.90;;;;;;5045638;28;20245;-70
2021/10/04 05:46:34;;;;;;;2.30;1.33;;;12.00;99.90;;;;;;5044422;28;20254;-70
2021/10/04 05:48:59;;;;;;;1.57;1.47;;;11.90;99.90;;;;;;5041808;28;20422;-70
2021/10/04 05:51:25;;;;;;;1.83;1.50;;;12.00;99.90;;;;;;5049389;28;20836;-70
2021/10/04 05:53:50;;;;;;;1.33;1.20;;;12.00;99.90;;;;;;5046793;28;20256;-70
2021/10/04 05:56:16;;;;;;;2.40;1.40;;;12.00;99.90;;;;;;5039320;28;20592;-70
2021/10/04 05:58:42;;;;;;;2.13;1.93;;;12.00;99.90;;;;;;5039824;28;20205;-71
2021/10/04 06:01:07;;;;;;;4.20;1.10;;;12.10;99.90;;;;;;5049197;28;20187;-69
2021/10/04 06:03:33;;;;;;;1.43;1.20;;;12.10;99.90;;;;;;5039255;28;20191;-70
2021/10/04 06:05:59;;;;;;;1.37;1.27;;;12.10;99.90;;;;;;5049153;28;20237;-71
2021/10/04 06:08:24;;;;;;;1.30;1.00;;;12.10;99.90;;;;;;5052108;28;20178;-71
2021/10/04 06:10:50;;;;;;;2.33;1.57;;;12.10;99.90;;;;;;5050617;28;20227;-71
2021/10/04 06:13:15;;;;;;;1.63;1.20;;;12.10;99.90;;;;;;5039149;28;20196;-71
2021/10/04 06:15:42;;;;;;;1.53;1.43;;;12.20;99.90;;;;;;5044939;28;20224;-69
2021/10/04 06:18:11;;;;;;;2.27;1.60;;;12.20;99.90;;;;;;5038293;28;20192;-70
2021/10/04 06:20:37;;;;;;;3.07;1.40;;;12.20;99.90;;;;;;5034562;28;20424;-70
2021/10/04 06:23:03;;;;;;;2.53;1.97;;;12.20;99.90;;;;;;5041592;28;20469;-71
2021/10/04 06:25:29;;;;;;;2.23;1.33;;;12.20;99.90;;;;;;5053845;28;20461;-70
2021/10/04 06:27:55;;;;;;;1.27;1.17;;;12.20;99.90;;;;;;5053138;28;20650;-70
2021/10/04 06:30:22;;;;;;;2.33;1.50;;;12.20;99.90;;;;;;5044045;28;20660;-71
2021/10/04 06:32:48;;;;;;;3.57;1.40;;;12.30;99.90;;;;;;5044065;28;20443;-71
2021/10/04 06:35:14;;;;;;;1.57;1.03;;;12.30;99.90;;;;;;5032394;28;20572;-71
2021/10/04 06:37:40;;;;;;;1.93;1.40;;;12.30;99.90;;;;;;5044244;28;20650;-71
2021/10/04 06:40:07;;;;;;;2.17;1.70;;;12.30;99.90;;;;;;5051239;28;20433;-69
2021/10/04 06:42:33;;;;;;;2.83;1.60;;;12.40;99.90;;;;;;5042960;28;20871;-70
2021/10/04 06:44:59;;;;;;;1.80;1.50;;;12.40;99.90;;;;;;5044707;28;20541;-70
2021/10/04 06:47:25;;;;;;;3.33;1.50;;;12.40;99.90;;;;;;5036415;28;20338;-70
2021/10/04 06:49:51;;;;;;;4.23;1.60;;;12.50;99.90;;;;;;5049819;28;20430;-71
2021/10/04 06:52:17;;;;;;;1.60;1.30;;;12.50;99.90;;;;;;5036429;28;20571;-70
2021/10/04 06:54:43;;;;;;;1.53;1.13;;;12.60;99.90;;;;;;5041268;28;20519;-70
2021/10/04 06:57:09;;;;;;;2.60;1.20;;;12.60;99.90;;;;;;5047651;28;20194;-70
2021/10/04 06:59:35;;;;;;;2.67;1.63;;;12.60;99.90;;;;;;5040961;28;20235;-70
2021/10/04 07:02:01;;;;;;;3.00;1.50;;;12.70;99.90;;;;;;5035180;28;20470;-70
2021/10/04 07:04:27;;;;;;;1.57;1.13;;;12.70;99.90;;;;;;5038587;28;20502;-70
2021/10/04 07:06:52;;;;;;;5.10;1.70;;;12.80;99.90;;;;;;5039719;28;20459;-70
2021/10/04 07:09:18;;;;;;;3.43;1.20;;;12.80;99.90;;;;;;5033629;28;20164;-71
2021/10/04 07:11:43;;;;;;;1.70;1.60;;;12.90;99.90;;;;;;5040677;28;20179;-70
2021/10/04 07:14:09;;;;;;;5.00;1.10;;;13.00;99.90;;;;;;5044829;28;20184;-70
2021/10/04 07:16:35;;;;;;;1.57;1.17;;;13.10;99.90;;;;;;5040857;28;20586;-70
2021/10/04 07:19:00;;;;;;;2.73;1.40;;;13.10;99.90;;;;;;5037466;28;20413;-70
2021/10/04 07:21:26;;;;;;;2.10;1.43;;;13.10;99.90;;;;;;5036344;28;20211;-70
2021/10/04 07:23:52;;;;;;;1.37;1.27;;;13.20;99.90;;;;;;5039143;28;20267;-70
2021/10/04 07:26:18;;;;;;;4.83;2.00;;;13.20;99.90;;;;;;5039265;28;20198;-70
2021/10/04 07:28:44;;;;;;;2.03;1.33;;;13.30;99.90;;;;;;5041084;28;20794;-70
2021/10/04 07:31:11;;;;;;;4.40;1.77;;;13.30;99.90;;;;;;5041798;28;20647;-70
2021/10/04 07:33:36;;;;;;;3.03;1.50;;;13.30;99.90;;;;;;5039721;28;20446;-70
2021/10/04 07:36:06;;;;;;;2.87;1.70;;;13.30;99.90;;;;;;5039119;28;20428;-70
2021/10/04 07:38:32;;;;;;;5.43;2.13;;;13.30;99.90;;;;;;5044278;28;20180;-70
2021/10/04 07:40:58;;;;;;;2.43;1.50;;;13.40;99.90;;;;;;5049605;28;20462;-70
2021/10/04 07:43:24;;;;;;;1.63;1.37;;;13.50;99.90;;;;;;5044443;28;20515;-70
2021/10/04 07:45:50;;;;;;;2.10;1.60;;;13.50;99.90;;;;;;5040131;28;20206;-70
2021/10/04 07:48:15;;;;;;;3.33;1.40;;;13.60;99.90;;;;;;5044758;28;20487;-71
2021/10/04 07:50:44;;;;;;;5.80;1.37;;;13.50;99.90;;;;;;5033994;28;20256;-70
2021/10/04 07:53:11;;;;;;;2.23;1.33;;;13.50;99.90;;;;;;5039383;28;20182;-70
2021/10/04 07:55:37;;;;;;;3.40;1.60;;;13.50;99.90;;;;;;5040478;28;20427;-71
2021/10/04 07:58:03;;;;;;;3.63;1.40;;;13.50;99.90;;;;;;5040171;28;20520;-71
2021/10/04 08:00:28;;;;;;;2.80;1.40;;;13.60;99.90;;;;;;5037570;28;20543;-71
2021/10/04 08:02:54;;;;;;;1.50;1.40;;;13.60;99.90;;;;;;5039726;28;20188;-71
2021/10/04 08:05:22;;;;;;;2.80;1.40;;;13.70;99.90;;;;;;5042789;28;20182;-71
2021/10/04 08:07:48;;;;;;;2.87;1.50;;;13.70;99.90;;;;;;5043201;28;20604;-71
2021/10/04 08:10:13;;;;;;;2.30;1.23;;;13.80;99.90;;;;;;5039107;28;20472;-71
2021/10/04 08:12:42;;;;;;;2.43;1.90;;;13.80;99.90;;;;;;5037812;28;20213;-71
2021/10/04 08:15:08;;;;;;;3.40;2.07;;;13.80;99.90;;;;;;5038846;28;20175;-71
2021/10/04 08:17:35;;;;;;;2.30;1.50;;;13.90;99.90;;;;;;5045531;28;20441;-71
2021/10/04 08:20:01;;;;;;;2.80;1.80;;;14.00;99.90;;;;;;5041288;28;20437;-70
2021/10/04 08:22:27;;;;;;;2.50;1.33;;;14.10;99.90;;;;;;5043096;28;20442;-70
2021/10/04 08:24:53;;;;;;;2.00;1.50;;;14.30;99.90;;;;;;5034210;28;20469;-70
2021/10/04 08:27:19;;;;;;;3.67;1.83;;;14.30;99.90;;;;;;5047192;28;20489;-70
2021/10/04 08:29:44;;;;;;;2.63;1.90;;;14.40;99.90;;;;;;5042252;28;20234;-71
2021/10/04 08:32:10;;;;;;;2.17;1.57;;;14.50;99.90;;;;;;5040352;28;20215;-70
2021/10/04 08:34:36;;;;;;;3.63;1.70;;;14.60;99.90;;;;;;5037160;28;20582;-70
2021/10/04 08:37:01;;;;;;;3.07;1.70;;;14.70;99.90;;;;;;5038829;28;20228;-70
2021/10/04 08:39:28;;;;;;;2.70;1.30;;;14.60;99.90;;;;;;5046720;28;20659;-70
2021/10/04 08:41:55;;;;;;;2.87;1.43;;;14.60;99.90;;;;;;5043294;28;20180;-71
2021/10/04 08:44:20;;;;;;;3.53;2.10;;;14.70;99.90;;;;;;5035989;28;20446;-71
2021/10/04 08:46:46;;;;;;;2.63;1.43;;;14.70;99.90;;;;;;5043854;28;20496;-70
2021/10/04 08:49:14;;;;;;;3.13;1.90;;;14.80;99.90;;;;;;5043250;28;20523;-70
2021/10/04 08:51:40;;;;;;;6.83;1.90;;;14.80;99.90;;;;;;5047169;28;20434;-70
2021/10/04 08:54:07;;;;;;;2.77;1.50;;;14.80;99.90;;;;;;5033987;28;20438;-70
2021/10/04 08:56:33;;;;;;;1.37;1.27;;;14.70;99.90;;;;;;5039368;28;20483;-70
2021/10/04 08:58:59;;;;;;;3.53;2.13;;;14.80;99.90;;;;;;5039320;28;20457;-70
2021/10/04 09:01:24;;;;;;;3.30;1.63;;;14.80;99.90;;;;;;5041852;28;20419;-71
2021/10/04 09:03:55;;;;;;;4.30;2.70;;;14.90;99.90;;;;;;5048265;28;20535;-70
2021/10/04 09:06:27;;;;;;;2.53;1.57;;;15.00;99.90;;;;;;5038177;28;20685;-70
2021/10/04 09:08:56;;;;;;;3.53;1.87;;;15.00;99.90;;;;;;5041699;28;21007;-70
2021/10/04 09:11:43;;;;;;;2.50;1.40;;;15.20;99.90;;;;;;5042039;28;20971;-70
2021/10/04 09:27:44;;;;;;;3.13;1.63;;;15.20;99.90;;;;;;5065097;28;20532;-71
2021/10/04 09:32:59;;;;;;;2.70;1.40;;;15.20;99.90;;;;;;5068672;28;21177;-71
2021/10/04 09:35:30;;;;;;;3.93;1.80;;;15.20;99.90;;;;;;5041798;28;20555;-71
2021/10/04 09:40:41;;;;;;;3.13;1.87;;;15.20;99.90;;;;;;5105057;27;20541;-70
2021/10/04 09:43:20;;;;;;;4.67;1.60;;;15.00;99.90;;;;;;5085129;28;20425;-70
2021/10/04 09:45:57;;;;;;;3.80;1.60;;;14.90;99.90;;;;;;5085718;28;20429;-71
2021/10/04 09:48:23;;;;;;;1.70;1.40;;;14.90;99.90;;;;;;5081644;28;20839;-70
2021/10/04 09:50:48;;;;;;;2.07;1.87;;;14.90;99.90;;;;;;5083252;28;20539;-71
2021/10/04 09:53:15;;;;;;;1.57;1.40;;;15.00;99.90;;;;;;5085638;28;20513;-71
2021/10/04 09:55:43;;;;;;;3.33;1.43;;;15.00;99.90;;;;;;5079262;28;20269;-71
2021/10/04 09:58:30;;;;;;;4.80;1.90;;;15.00;99.90;;;;;;5084623;28;20948;-71
2021/10/04 10:03:40;;;;;;;4.27;2.27;;;15.10;99.90;;;;;;4993619;27;20616;-71
2021/10/04 10:06:07;;;;;;;3.27;1.47;;;15.20;99.90;;;;;;5025519;28;20545;-71
2021/10/04 10:08:34;;;;;;;2.30;1.70;;;15.20;99.90;;;;;;4990165;28;20452;-70
2021/10/04 10:11:04;;;;;;;4.50;1.53;;;15.20;99.90;;;;;;4999433;28;20548;-71
2021/10/04 10:13:31;;;;;;;6.67;1.93;;;15.30;99.90;;;;;;4993416;28;20445;-71
2021/10/04 10:18:41;;;;;;;4.13;1.70;;;15.40;99.90;;;;;;5047207;28;20564;-70
2021/10/04 10:21:08;;;;;;;2.97;2.37;;;15.60;99.90;;;;;;5045905;28;20437;-71
2021/10/04 10:23:44;;;;;;;1.80;1.30;;;15.60;99.90;;;;;;5045429;28;20470;-71
2021/10/04 10:39:51;;;;;;;4.87;1.50;;;15.90;99.90;;;;;;5103486;27;20622;-71
2021/10/04 10:42:35;;;;;;;3.20;1.73;;;15.90;99.90;;;;;;5105132;28;20524;-71
2021/10/04 10:55:38;;;;;;;2.03;1.43;;;16.10;99.90;;;;;;5109951;27;20578;-71
2021/10/04 11:00:59;;;;;;;8.87;5.67;;;16.40;99.90;;;;;;5097835;27;20892;-71
2021/10/04 11:03:26;;;;;;;5.80;2.03;;;16.40;99.90;;;;;;5081503;28;20468;-70
2021/10/04 11:06:08;;;;;;;7.10;1.07;;;16.40;99.90;;;;;;5081154;28;20457;-71
2021/10/04 11:11:19;;;;;;;2.93;1.27;;;16.50;99.90;;;;;;5055177;28;20598;-71
2021/10/04 11:16:42;;;;;;;10.57;1.47;;;16.80;99.90;;;;;;5084844;27;21091;-71
2021/10/04 11:19:19;;;;;;;1.57;1.13;;;16.90;99.90;;;;;;5083678;28;20433;-71
2021/10/04 11:21:44;;;;;;;2.77;1.00;;;16.90;99.90;;;;;;5074917;28;20801;-71
2021/10/04 11:24:11;;;;;;;2.20;1.10;;;17.00;99.90;;;;;;5079628;28;20433;-71
2021/10/04 11:26:40;;;;;;;4.63;1.10;;;17.00;99.90;;;;;;5087511;28;20286;-71
2021/10/04 11:29:07;;;;;;;1.70;1.20;;;17.00;99.90;;;;;;5081428;28;20846;-71
2021/10/04 11:31:36;;;;;;;2.20;1.40;;;17.00;99.90;;;;;;5081739;28;20438;-71
2021/10/04 11:34:05;;;;;;;4.73;2.07;;;16.90;99.90;;;;;;5085077;28;20935;-71
2021/10/04 11:39:30;;;;;;;2.03;1.33;;;16.80;99.90;;;;;;5096470;27;20667;-70
2021/10/04 11:42:03;;;;;;;3.67;0.90;;;16.70;99.90;;;;;;5073499;28;20468;-70
2021/10/04 11:44:30;;;;;;;1.73;0.80;;;16.60;99.90;;;;;;5072621;28;20444;-70
2021/10/04 11:47:01;;;;;;;3.73;1.83;;;16.50;99.90;;;;;;5069181;28;20445;-70
2021/10/04 11:49:30;;;;;;;2.70;1.30;;;16.50;99.90;;;;;;5072925;28;20960;-70
2021/10/04 11:51:58;;;;;;;1.53;0.90;;;16.60;99.90;;;;;;5070554;28;20437;-70
2021/10/04 11:57:29;;;;;;;2.43;1.40;;;16.60;99.90;;;;;;5060091;28;20661;-71
2021/10/04 12:02:37;;;;;;;2.63;1.50;;;16.60;99.90;;;;;;5048713;28;20541;-70
2021/10/04 12:05:24;;;;;;;2.50;0.90;;;16.60;99.90;;;;;;5046674;28;20440;-70
2021/10/04 12:08:08;;;;;;;3.27;1.30;;;16.70;99.90;;;;;;5031364;28;20465;-70
2021/10/04 12:13:22;;;;;;;3.23;1.30;;;16.70;99.90;;;;;;5060377;28;20680;-71
2021/10/04 12:15:51;;;;;;;3.10;1.30;;;16.70;99.90;;;;;;5037613;28;20434;-71
2021/10/04 12:18:20;;;;;;;1.67;1.30;;;16.60;99.90;;;;;;5046298;28;21071;-71
2021/10/04 12:20:47;;;;;;;4.17;1.57;;;16.60;99.90;;;;;;5045783;28;20427;-71
2021/10/04 12:23:17;;;;;;;1.73;1.10;;;16.60;99.90;;;;;;5045051;28;20466;-71
2021/10/04 12:25:43;;;;;;;4.67;1.73;;;16.60;99.90;;;;;;5048883;28;20419;-70
2021/10/04 12:28:10;;;;;;;1.10;0.80;;;16.60;99.90;;;;;;5042690;28;20435;-70
2021/10/04 12:30:53;;;;;;;1.73;1.20;;;16.70;99.90;;;;;;5043193;28;20187;-70
2021/10/04 12:33:41;;;;;;;1.50;1.00;;;16.70;99.90;;;;;;5044383;28;20932;-70
2021/10/04 12:36:06;;;;;;;4.20;1.63;;;16.70;99.90;;;;;;5040201;28;20470;-70
2021/10/04 12:38:33;;;;;;;1.10;0.87;;;16.80;99.90;;;;;;5048444;28;20462;-70
2021/10/04 12:41:00;;;;;;;3.00;1.40;;;16.80;99.90;;;;;;5036551;28;20183;-70
2021/10/04 12:43:28;;;;;;;1.73;0.90;;;16.90;99.90;;;;;;5036002;28;20941;-70
2021/10/04 12:48:37;;;;;;;1.17;1.07;;;16.90;99.90;;;;;;5066181;28;20545;-70
2021/10/04 12:51:06;;;;;;;3.00;2.20;;;16.90;99.90;;;;;;5041826;28;20431;-70
2021/10/04 12:53:32;;;;;;;1.70;0.80;;;16.90;99.90;;;;;;5043937;28;20435;-70
2021/10/04 12:56:02;;;;;;;1.47;0.97;;;16.90;99.90;;;;;;5043129;28;20458;-70
2021/10/04 12:58:32;;;;;;;2.77;1.07;;;16.80;99.90;;;;;;5043558;28;20536;-70
2021/10/04 13:01:18;;;;;;;1.10;0.80;;;16.80;99.90;;;;;;5041125;28;20877;-70
2021/10/04 13:04:05;;;;;;;1.57;1.17;;;16.70;99.90;;;;;;5031886;28;20446;-70
2021/10/04 13:06:32;;;;;;;1.67;1.00;;;16.60;99.90;;;;;;5042827;28;20470;-70
2021/10/04 13:08:59;;;;;;;1.53;1.20;;;16.50;99.90;;;;;;5046892;28;20795;-70
2021/10/04 13:11:25;;;;;;;1.90;1.63;;;16.50;99.90;;;;;;5041797;28;20466;-70
2021/10/04 13:13:52;;;;;;;1.10;1.00;;;16.50;99.90;;;;;;5039775;28;20497;-70
2021/10/04 13:16:18;;;;;;;1.83;1.00;;;16.50;99.90;;;;;;5042619;28;20431;-70
2021/10/04 13:18:44;;;;;;;1.80;0.90;;;16.50;99.90;;;;;;5045971;28;20772;-70
2021/10/04 13:21:10;;;;;;;1.00;0.90;;;16.50;99.90;;;;;;5041015;28;20952;-70
2021/10/04 13:23:35;;;;;;;1.40;1.10;;;16.50;99.90;;;;;;5037785;28;20184;-70
2021/10/04 13:26:05;;;;;;;3.83;1.47;;;16.60;99.90;;;;;;5047795;28;20181;-70
2021/10/04 13:28:30;;;;;;;2.50;1.17;;;16.60;99.90;;;;;;5047104;28;20572;-70
2021/10/04 13:30:56;;;;;;;2.63;0.93;;;16.60;99.90;;;;;;5033470;28;20999;-70
2021/10/04 13:33:21;;;;;;;1.47;1.10;;;16.60;99.90;;;;;;5039761;28;20609;-70
2021/10/04 13:35:48;;;;;;;4.60;1.40;;;16.50;99.90;;;;;;5039540;28;20335;-70
2021/10/04 13:38:15;;;;;;;1.27;1.17;;;16.50;99.90;;;;;;5042283;28;20744;-70
2021/10/04 13:40:41;;;;;;;1.63;1.37;;;16.40;99.90;;;;;;5042806;28;20544;-70
2021/10/04 13:43:07;;;;;;;2.43;1.40;;;16.40;99.90;;;;;;5045212;28;20435;-70
2021/10/04 13:45:33;;;;;;;3.23;2.60;;;16.40;99.90;;;;;;5044790;28;20592;-70
2021/10/04 13:48:00;;;;;;;5.80;2.37;;;16.30;99.90;;;;;;5039042;28;20200;-70
2021/10/04 13:50:26;;;;;;;3.57;1.63;;;16.20;99.90;;;;;;5035487;28;20534;-70
2021/10/04 13:52:52;;;;;;;3.67;1.37;;;16.20;99.90;;;;;;5035191;28;20432;-70
2021/10/04 13:55:17;;;;;;;2.80;1.30;;;16.20;99.90;;;;;;5033082;28;20180;-70
2021/10/04 13:57:43;;;;;;;2.00;1.47;;;16.20;99.90;;;;;;5039295;28;20194;-70